Terminal Aerodrome Forecast
Issued by NWS Charleston, WV

Home | Current Version | Previous Version | Text Only | Print | Product List | Glossary On
Versions: 1 2 3 4 5 6 7 8 9 10 11 12 13 14 15 16 17 18 19 20 21 22 23 24
000
FTUS41 KRLX 271500 AAA
TAFHTS
TAF AMD
KHTS 271537Z 2716/2812 32005KT P6SM SCT025
      TEMPO 2716/2719 BKN025
     FM272000 32005KT P6SM SCT030
     FM280100 VRB03KT P6SM SKC
     FM280900 VRB03KT P6SM BKN100=

USA.gov is the U.S. government's official web portal to all federal, state and local government web resources and services.